Time;durP1;ratioP1;P1;durP2;ratioP2;P2;SDS_P1;SDS_P2;PMS_P1;PMS_P2;Temp;Humidity;BMP_temperature;BMP_pressure;BME280_temperature;BME280_humidity;BME280_pressure;Samples;Min_cycle;Max_cycle;Signal;HPM_P1;HPM_P2
2022/10/13 00:02:21;;;;;;;15.80;7.82;;;5.00;99.90;;;5.21;100.00;100127.53;5005416;28;115087;-77
2022/10/13 00:04:49;;;;;;;12.65;7.13;;;4.90;99.90;;;5.20;100.00;100130.50;5004384;28;129976;-76
2022/10/13 00:07:17;;;;;;;16.58;7.80;;;4.90;99.90;;;5.17;100.00;100128.31;5007254;28;129712;-76
2022/10/13 00:09:46;;;;;;;18.83;8.10;;;4.90;99.90;;;5.10;100.00;100128.56;5032415;27;118079;-76
2022/10/13 00:12:14;;;;;;;15.07;7.95;;;4.80;99.90;;;5.05;100.00;100136.59;5034388;28;115518;-78
2022/10/13 00:14:43;;;;;;;20.23;8.55;;;4.90;99.90;;;5.02;100.00;100129.84;5031090;28;129711;-77
2022/10/13 00:17:12;;;;;;;19.70;8.55;;;4.90;99.90;;;5.01;100.00;100128.22;5021330;28;130026;-75
2022/10/13 00:19:41;;;;;;;15.20;7.45;;;4.70;99.90;;;4.95;100.00;100131.94;5021904;28;118699;-76
2022/10/13 00:22:11;;;;;;;16.25;7.63;;;4.60;99.90;;;4.89;100.00;100130.28;5022164;28;115093;-76
2022/10/13 00:24:40;;;;;;;16.58;8.10;;;4.40;99.90;;;4.87;100.00;100132.44;5021614;28;129536;-76
2022/10/13 00:27:09;;;;;;;12.43;7.57;;;4.30;99.90;;;4.79;100.00;100132.91;5023104;28;129364;-76
2022/10/13 00:29:37;;;;;;;17.52;8.07;;;4.20;99.90;;;4.64;100.00;100137.09;5024635;28;118040;-76
2022/10/13 00:32:06;;;;;;;19.10;8.25;;;4.20;99.90;;;4.55;100.00;100135.97;5025358;28;115808;-77
2022/10/13 00:34:37;;;;;;;18.15;8.13;;;4.30;99.90;;;4.50;100.00;100138.56;5037099;28;128993;-77
2022/10/13 00:37:06;;;;;;;11.75;7.05;;;4.10;99.90;;;4.47;100.00;100136.41;5039652;28;129537;-77
2022/10/13 00:39:36;;;;;;;17.17;7.60;;;4.00;99.90;;;4.35;100.00;100141.13;5035982;28;118708;-76
2022/10/13 00:42:06;;;;;;;14.07;6.28;;;4.00;99.90;;;4.25;100.00;100133.78;5039293;28;114400;-76
2022/10/13 00:45:04;;;;;;;11.52;6.10;;;3.90;99.90;;;4.17;100.00;100150.38;5029883;28;130304;-77
2022/10/13 00:47:39;;;;;;;14.82;6.38;;;3.90;99.90;;;4.13;100.00;100150.06;5020550;28;129766;-76
2022/10/13 00:50:13;;;;;;;13.55;6.47;;;3.90;99.90;;;4.10;100.00;100145.19;5003434;28;118531;-77
2022/10/13 00:52:43;;;;;;;10.77;5.80;;;3.80;99.90;;;4.07;100.00;100151.88;5024210;28;115277;-76
2022/10/13 00:55:17;;;;;;;17.17;7.03;;;3.70;99.90;;;4.03;100.00;100149.94;5006363;28;129073;-77
2022/10/13 00:57:53;;;;;;;19.73;7.28;;;3.70;99.90;;;3.93;100.00;100151.44;5007503;28;129745;-77
2022/10/13 01:00:28;;;;;;;14.93;6.75;;;3.70;99.90;;;3.88;100.00;100150.56;5011335;28;118378;-75
2022/10/13 01:02:57;;;;;;;21.83;6.80;;;3.60;99.90;;;3.83;100.00;100156.69;5010640;28;116779;-77
2022/10/13 01:05:27;;;;;;;26.65;7.82;;;3.60;99.90;;;3.77;100.00;100146.94;5010349;28;130624;-76
2022/10/13 01:07:58;;;;;;;19.25;6.85;;;3.50;99.90;;;3.77;100.00;100149.63;5012054;28;128592;-77
2022/10/13 01:10:41;;;;;;;26.95;7.97;;;3.50;99.90;;;3.75;100.00;100149.88;5012130;28;117753;-77
2022/10/13 01:13:18;;;;;;;30.60;8.80;;;3.40;99.90;;;3.75;100.00;100144.50;5013605;28;115414;-77
2022/10/13 01:15:57;;;;;;;19.02;7.75;;;3.40;99.90;;;3.72;100.00;100138.84;5009381;28;129219;-76
2022/10/13 01:18:36;;;;;;;18.08;7.53;;;3.30;99.90;;;3.65;100.00;100154.34;5004159;28;130110;-77
2022/10/13 01:21:21;;;;;;;18.73;7.13;;;3.30;99.90;;;3.62;100.00;100144.91;5009886;28;118998;-77
2022/10/13 01:24:35;;;;;;;21.75;8.35;;;3.20;99.90;;;3.56;100.00;100152.06;5021229;28;114026;-77
2022/10/13 01:27:43;;;;;;;23.95;8.63;;;3.20;99.90;;;3.48;100.00;100152.50;5014579;28;130652;-78
2022/10/13 01:30:19;;;;;;;22.35;8.05;;;3.20;99.90;;;3.39;100.00;100145.94;5021424;28;128119;-78
2022/10/13 01:33:25;;;;;;;18.85;8.85;;;3.10;99.90;;;3.38;100.00;100149.69;5019440;28;118954;-78
2022/10/13 01:36:17;;;;;;;21.30;7.85;;;3.20;99.90;;;3.42;100.00;100150.81;5021629;28;114505;-78
2022/10/13 01:38:54;;;;;;;30.27;8.93;;;3.20;99.90;;;3.51;100.00;100143.97;5008374;28;129066;-77
2022/10/13 01:41:31;;;;;;;22.73;8.98;;;3.30;99.90;;;3.57;100.00;100148.34;5022100;28;129687;-77
2022/10/13 01:44:11;;;;;;;27.35;10.32;;;3.30;99.90;;;3.60;100.00;100147.84;5024206;28;118403;-77
2022/10/13 01:46:44;;;;;;;21.17;9.43;;;3.40;99.90;;;3.69;100.00;100144.72;5024433;28;113681;-77
2022/10/13 01:49:17;;;;;;;19.55;9.20;;;3.50;99.90;;;3.78;100.00;100144.00;5022327;28;130757;-78
2022/10/13 01:51:46;;;;;;;28.50;9.63;;;3.50;99.90;;;3.86;100.00;100145.44;5012611;28;128881;-76
2022/10/13 01:54:15;;;;;;;33.22;8.25;;;3.60;99.90;;;3.92;100.00;100139.06;5009126;28;118961;-77
2022/10/13 01:56:53;;;;;;;19.23;9.52;;;3.70;99.90;;;4.04;100.00;100138.94;5016614;28;116417;-76
2022/10/13 01:59:23;;;;;;;47.95;9.00;;;3.80;99.90;;;4.14;100.00;100140.91;5003938;28;130208;-78
2022/10/13 02:02:06;;;;;;;23.40;9.63;;;3.90;99.90;;;4.25;100.00;100148.00;5018109;28;129654;-77
2022/10/13 02:04:51;;;;;;;28.17;9.48;;;4.10;99.90;;;4.32;100.00;100148.63;5022086;28;118854;-77
2022/10/13 02:07:24;;;;;;;24.77;8.80;;;4.20;99.90;;;4.44;100.00;100144.97;5013186;28;115296;-78
2022/10/13 02:10:03;;;;;;;21.90;8.57;;;4.20;99.90;;;4.49;100.00;100145.03;5014050;28;129696;-79
2022/10/13 02:12:39;;;;;;;39.03;9.05;;;4.30;99.90;;;4.53;100.00;100143.44;5002407;28;129208;-79
2022/10/13 02:15:13;;;;;;;44.80;9.23;;;4.30;99.90;;;4.56;100.00;100156.38;5019570;28;119469;-77
2022/10/13 02:17:45;;;;;;;25.58;7.88;;;4.40;99.90;;;4.59;100.00;100150.50;5020907;28;115173;-78
2022/10/13 02:20:16;;;;;;;15.48;7.72;;;4.50;99.90;;;4.63;100.00;100143.53;5005528;28;128935;-77
2022/10/13 02:22:51;;;;;;;34.63;10.68;;;4.50;99.90;;;4.68;100.00;100145.47;5020659;28;129511;-77
2022/10/13 02:25:20;;;;;;;21.60;8.68;;;4.50;99.90;;;4.73;100.00;100142.00;5013417;28;119236;-75
2022/10/13 02:27:49;;;;;;;48.85;11.07;;;4.60;99.90;;;4.79;100.00;100140.97;5017480;28;115013;-77
2022/10/13 02:30:22;;;;;;;37.78;8.63;;;4.60;1.00;;;4.83;100.00;100142.06;5019690;28;130100;-77
2022/10/13 02:32:53;;;;;;;32.20;9.75;;;4.60;1.00;;;4.87;100.00;100153.94;5018948;28;129057;-79
2022/10/13 02:35:21;;;;;;;55.38;10.60;;;4.60;1.00;;;4.91;100.00;100147.00;5014196;28;118569;-80
2022/10/13 02:37:50;;;;;;;118.95;12.45;;;4.70;1.00;;;4.93;100.00;100152.13;5005186;28;115943;-78
2022/10/13 02:40:19;;;;;;;103.82;13.80;;;4.70;1.00;;;4.88;100.00;100144.00;5009338;28;129813;-79
2022/10/13 02:42:47;;;;;;;54.25;9.18;;;4.70;1.00;;;4.91;100.00;100141.63;5014558;28;130064;-77
2022/10/13 02:45:16;;;;;;;111.95;15.93;;;4.70;1.00;;;4.86;100.00;100145.06;5018958;28;118854;-77
2022/10/13 02:47:45;;;;;;;88.78;10.98;;;4.70;1.00;;;4.85;100.00;100148.03;5018468;28;115885;-76
2022/10/13 02:50:16;;;;;;;60.80;8.95;;;4.60;1.00;;;4.83;100.00;100142.06;5031415;28;130205;-76
2022/10/13 02:52:45;;;;;;;74.03;10.20;;;4.70;1.00;;;4.83;100.00;100147.44;5011307;28;129624;-76
2022/10/13 02:55:14;;;;;;;19.23;6.15;;;4.60;1.00;;;4.81;100.00;100144.22;5009136;28;118151;-76
2022/10/13 02:57:45;;;;;;;62.75;9.15;;;4.60;1.00;;;4.84;100.00;100146.38;4992680;28;114631;-77
2022/10/13 03:00:15;;;;;;;82.53;10.57;;;4.60;1.00;;;4.83;100.00;100152.81;5007249;28;130270;-75
2022/10/13 03:02:44;;;;;;;70.88;8.55;;;4.60;1.00;;;4.84;100.00;100151.78;5010873;28;128664;-76
2022/10/13 03:05:12;;;;;;;53.20;9.48;;;4.60;1.00;;;4.83;100.00;100158.22;4988703;28;118128;-75
2022/10/13 03:07:42;;;;;;;32.50;8.25;;;4.60;1.00;;;4.83;100.00;100158.22;5007139;28;114053;-77
2022/10/13 03:10:11;;;;;;;54.65;8.73;;;4.60;1.00;;;4.82;100.00;100151.22;5004919;28;130017;-77
2022/10/13 03:12:40;;;;;;;54.63;8.95;;;4.60;1.00;;;4.79;100.00;100147.16;5006329;28;128007;-75
2022/10/13 03:15:09;;;;;;;74.47;10.48;;;4.60;1.00;;;4.76;100.00;100136.13;5002750;28;119379;-76
2022/10/13 03:17:38;;;;;;;104.40;12.65;;;4.50;1.00;;;4.78;100.00;100144.72;5008109;28;116010;-76
2022/10/13 03:20:09;;;;;;;116.57;15.45;;;4.60;1.00;;;4.73;100.00;100150.88;5021589;28;131834;-77
2022/10/13 03:22:38;;;;;;;153.15;14.93;;;4.50;1.00;;;4.72;100.00;100146.59;5020185;28;129231;-74
2022/10/13 03:25:09;;;;;;;112.55;14.02;;;4.50;1.00;;;4.69;100.00;100141.72;5007915;28;119891;-75
2022/10/13 03:27:42;;;;;;;122.45;13.25;;;4.40;1.00;;;4.65;100.00;100157.53;5005977;28;119169;-76
2022/10/13 03:30:12;;;;;;;170.77;19.40;;;4.40;1.00;;;4.66;100.00;100145.72;5004389;28;128954;-76
2022/10/13 03:32:41;;;;;;;179.90;17.75;;;4.40;1.00;;;4.58;100.00;100148.88;5004082;28;129585;-75
2022/10/13 03:35:10;;;;;;;170.20;17.42;;;4.30;1.00;;;4.54;100.00;100155.81;5004404;28;122338;-76
2022/10/13 03:37:38;;;;;;;185.52;21.60;;;4.30;1.00;;;4.48;100.00;100162.22;5023381;28;122069;-76
2022/10/13 03:40:10;;;;;;;138.32;16.00;;;4.20;1.00;;;4.40;100.00;100151.94;5022896;28;129970;-76
2022/10/13 03:42:39;;;;;;;50.70;9.27;;;4.20;1.00;;;4.36;100.00;100153.50;5005253;27;128783;-76
2022/10/13 03:45:09;;;;;;;162.45;15.00;;;4.20;1.00;;;4.34;100.00;100158.34;5021585;28;119680;-75
2022/10/13 03:47:39;;;;;;;52.13;7.78;;;4.10;1.00;;;4.23;100.00;100155.53;5012949;28;119250;-76
2022/10/13 03:50:10;;;;;;;82.05;10.00;;;4.10;1.00;;;4.19;100.00;100151.75;4999579;28;129670;-74
2022/10/13 03:52:38;;;;;;;86.60;9.98;;;4.00;1.00;;;4.14;100.00;100154.34;5000254;28;129948;-75
2022/10/13 03:55:09;;;;;;;36.85;6.40;;;4.00;1.00;;;4.21;100.00;100156.88;5001804;28;118874;-74
2022/10/13 03:57:38;;;;;;;31.58;7.35;;;4.00;1.00;;;4.25;100.00;100153.38;4983703;28;118852;-75
2022/10/13 04:00:09;;;;;;;15.15;5.55;;;4.00;1.00;;;4.28;100.00;100152.88;4999730;28;129385;-74
2022/10/13 04:02:42;;;;;;;54.35;8.23;;;4.00;1.00;;;4.32;100.00;100164.75;5002809;28;128862;-76
2022/10/13 04:05:11;;;;;;;25.75;6.90;;;4.00;1.00;;;4.35;100.00;100162.63;5006094;28;120296;-77
2022/10/13 04:07:39;;;;;;;17.75;6.50;;;4.00;1.00;;;4.35;100.00;100159.94;4997484;28;119762;-78
2022/10/13 04:10:21;;;;;;;101.45;9.68;;;4.00;1.00;;;4.22;100.00;100163.84;4988584;28;129461;-78
2022/10/13 04:12:51;;;;;;;53.33;7.90;;;3.90;1.00;;;4.07;100.00;100164.50;5018557;28;130562;-77
2022/10/13 04:15:20;;;;;;;53.05;8.30;;;3.80;1.00;;;3.95;100.00;100160.06;5022785;28;119814;-76
2022/10/13 04:17:48;;;;;;;41.22;6.70;;;3.70;1.00;;;3.95;100.00;100170.81;5016989;28;120157;-77
2022/10/13 04:20:17;;;;;;;34.75;7.20;;;3.80;1.00;;;3.94;100.00;100166.50;5030479;28;129730;-76
2022/10/13 04:22:46;;;;;;;25.92;6.22;;;3.70;1.00;;;3.93;100.00;100170.25;5035338;28;130171;-77
2022/10/13 04:25:14;;;;;;;45.25;7.38;;;3.70;1.00;;;3.89;100.00;100163.75;5034425;28;121351;-76
2022/10/13 04:27:46;;;;;;;23.20;6.43;;;3.70;1.00;;;3.85;100.00;100165.31;5035347;28;120421;-76
2022/10/13 04:30:15;;;;;;;52.67;7.68;;;3.70;1.00;;;3.80;100.00;100170.63;5020544;28;129102;-76
2022/10/13 04:32:44;;;;;;;47.97;8.68;;;3.70;1.00;;;3.77;100.00;100174.63;5019447;28;129850;-76
2022/10/13 04:35:13;;;;;;;88.63;9.20;;;3.70;1.00;;;3.75;100.00;100171.38;5017740;28;119859;-77
2022/10/13 04:37:41;;;;;;;95.40;9.45;;;3.70;1.00;;;3.77;100.00;100171.13;5001420;28;119430;-77
2022/10/13 04:40:11;;;;;;;66.57;8.50;;;3.60;1.00;;;3.72;100.00;100173.75;5002012;28;130026;-77
2022/10/13 04:42:40;;;;;;;47.60;6.65;;;3.60;1.00;;;3.72;100.00;100173.75;5000106;28;129646;-78
2022/10/13 04:45:11;;;;;;;53.95;6.90;;;3.60;1.00;;;3.69;100.00;100172.34;5006137;28;119681;-78
2022/10/13 04:47:43;;;;;;;61.00;8.20;;;3.60;1.00;;;3.63;100.00;100176.06;5025466;28;119776;-76
2022/10/13 04:50:12;;;;;;;53.22;6.57;;;3.50;1.00;;;3.55;100.00;100176.47;5023631;28;130439;-77
2022/10/13 04:52:40;;;;;;;39.67;5.57;;;3.50;1.00;;;3.42;100.00;100177.66;5019008;28;130193;-77
2022/10/13 04:55:09;;;;;;;37.25;6.55;;;3.40;1.00;;;3.35;100.00;100179.69;5006231;28;119709;-78
2022/10/13 04:57:37;;;;;;;40.92;6.65;;;3.40;1.00;;;3.36;100.00;100184.00;4990502;28;119450;-78
2022/10/13 05:00:10;;;;;;;61.05;7.70;;;3.30;1.00;;;3.30;100.00;100174.25;5003785;28;130075;-78
2022/10/13 05:02:39;;;;;;;47.33;5.22;;;3.30;1.00;;;3.34;100.00;100180.75;5009883;28;128390;-77
2022/10/13 05:05:09;;;;;;;56.50;6.38;;;3.30;1.00;;;3.34;100.00;100175.41;5008931;28;119673;-78
2022/10/13 05:07:37;;;;;;;53.20;6.75;;;3.30;1.00;;;3.34;100.00;100186.13;5008046;28;120255;-77
2022/10/13 05:10:06;;;;;;;43.85;5.78;;;3.30;1.00;;;3.39;100.00;100188.88;5008468;28;128992;-77
2022/10/13 05:12:35;;;;;;;40.60;6.10;;;3.30;1.00;;;3.42;100.00;100180.34;5006802;28;130272;-77
2022/10/13 05:15:04;;;;;;;20.42;6.47;;;3.30;1.00;;;3.50;100.00;100182.59;5006350;28;122787;-76
2022/10/13 05:17:34;;;;;;;17.50;7.05;;;3.40;1.00;;;3.59;100.00;100189.16;5015212;28;123301;-77
2022/10/13 05:20:09;;;;;;;41.22;9.40;;;3.40;1.00;;;3.71;100.00;100185.53;5018362;28;128887;-77
2022/10/13 05:22:38;;;;;;;30.30;8.25;;;3.40;1.00;;;3.75;100.00;100192.03;5018421;28;128922;-78
2022/10/13 05:25:07;;;;;;;32.25;9.00;;;3.40;1.00;;;3.77;100.00;100197.97;5014078;28;119367;-78
2022/10/13 05:27:36;;;;;;;29.80;8.13;;;3.40;1.00;;;3.79;100.00;100187.81;5013479;28;119719;-77
2022/10/13 05:30:08;;;;;;;24.75;8.55;;;3.40;1.00;;;3.88;100.00;100197.06;5016969;28;131336;-78
2022/10/13 05:32:37;;;;;;;39.28;8.35;;;3.40;1.00;;;3.84;100.00;100195.91;5008809;28;129173;-76
2022/10/13 05:35:07;;;;;;;41.60;9.23;;;3.40;1.00;;;3.76;100.00;100197.16;5008639;28;120054;-77
2022/10/13 05:37:36;;;;;;;35.05;7.47;;;3.30;1.00;;;3.74;100.00;100190.41;5006115;28;119453;-77
2022/10/13 05:40:05;;;;;;;30.25;8.05;;;3.30;1.00;;;3.75;100.00;100194.72;4998176;28;129660;-79
2022/10/13 05:42:36;;;;;;;17.27;7.28;;;3.40;1.00;;;3.89;100.00;100203.22;5003588;28;129585;-77
2022/10/13 05:45:08;;;;;;;18.58;8.27;;;3.50;1.00;;;3.97;100.00;100200.09;5005637;28;119620;-76
2022/10/13 05:47:37;;;;;;;26.25;8.80;;;3.50;1.00;;;4.06;100.00;100198.59;5009257;28;119107;-77
2022/10/13 05:50:08;;;;;;;38.20;8.73;;;3.50;1.00;;;4.10;100.00;100196.25;5012463;28;129807;-77
2022/10/13 05:52:37;;;;;;;31.50;7.55;;;3.60;1.00;;;4.18;100.00;100201.16;5013532;28;129120;-76
2022/10/13 05:55:11;;;;;;;21.15;7.78;;;3.70;1.00;;;4.28;100.00;100205.81;5010979;28;119532;-77
2022/10/13 05:57:44;;;;;;;29.27;7.63;;;3.70;1.00;;;4.37;100.00;100214.25;5012828;28;118586;-78
2022/10/13 06:00:17;;;;;;;26.05;7.57;;;3.80;1.00;;;4.38;100.00;100205.13;5010680;28;132081;-76
2022/10/13 06:02:53;;;;;;;36.42;9.10;;;3.80;1.00;;;4.50;100.00;100203.09;5027589;28;129562;-78
2022/10/13 06:05:25;;;;;;;55.17;10.15;;;4.00;1.00;;;4.80;100.00;100201.75;5020647;28;122480;-78
2022/10/13 06:07:54;;;;;;;23.08;9.52;;;4.20;1.00;;;5.08;100.00;100203.34;5032514;28;121918;-77
2022/10/13 06:10:24;;;;;;;52.42;11.98;;;4.50;1.00;;;5.28;100.00;100197.28;5023198;28;129679;-77
2022/10/13 06:12:53;;;;;;;70.32;18.67;;;4.50;1.00;;;5.26;100.00;100202.13;5010940;28;128678;-77
2022/10/13 06:15:21;;;;;;;104.10;27.63;;;4.40;1.00;;;5.27;100.00;100201.06;5006536;28;119885;-78
2022/10/13 06:17:51;;;;;;;93.53;26.20;;;4.50;1.00;;;5.28;100.00;100202.66;5009214;28;118087;-76
2022/10/13 06:20:20;;;;;;;133.25;28.60;;;4.50;1.00;;;5.43;100.00;100203.84;5003392;28;130129;-77
2022/10/13 06:22:49;;;;;;;130.75;34.97;;;4.70;1.00;;;5.40;100.00;100203.28;5004046;28;130161;-76
2022/10/13 06:25:18;;;;;;;123.88;25.88;;;4.60;1.00;;;5.47;100.00;100204.94;5002419;28;119792;-75
2022/10/13 06:27:46;;;;;;;55.67;11.43;;;4.70;1.00;;;5.57;100.00;100210.38;5002404;28;120541;-76
2022/10/13 06:30:15;;;;;;;29.50;14.13;;;4.80;1.00;;;5.71;100.00;100216.91;5003272;28;130150;-76
2022/10/13 06:32:44;;;;;;;26.73;11.18;;;4.80;1.00;;;5.96;100.00;100212.72;5006703;28;128964;-76
2022/10/13 06:35:14;;;;;;;41.03;12.48;;;5.00;1.00;;;6.04;100.00;100206.84;5006141;28;118335;-76
2022/10/13 06:37:45;;;;;;;59.60;12.27;;;5.10;1.00;;;6.13;100.00;100211.75;5008734;28;119428;-76
2022/10/13 06:40:14;;;;;;;40.17;10.52;;;5.00;1.00;;;6.18;100.00;100206.38;5009031;28;130525;-76
2022/10/13 06:42:42;;;;;;;30.67;11.02;;;5.10;1.00;;;6.35;100.00;100204.25;5010023;28;129516;-76
2022/10/13 06:45:11;;;;;;;26.75;8.93;;;5.10;1.00;;;6.53;100.00;100204.84;5004527;28;119652;-76
2022/10/13 06:47:42;;;;;;;16.92;8.93;;;5.10;1.00;;;6.64;100.00;100211.88;5006285;28;119949;-76
2022/10/13 06:50:11;;;;;;;30.90;12.77;;;5.30;1.00;;;6.69;100.00;100203.78;5002487;28;130689;-77
2022/10/13 06:52:42;;;;;;;57.45;15.05;;;5.30;1.00;;;6.69;100.00;100209.19;5001920;28;129538;-76
2022/10/13 06:55:11;;;;;;;39.80;14.95;;;5.20;1.00;;;6.79;100.00;100209.22;5002741;28;121703;-76
2022/10/13 06:57:39;;;;;;;31.55;12.75;;;5.40;1.00;;;6.80;100.00;100216.19;5002703;28;122054;-76
2022/10/13 07:00:11;;;;;;;34.47;13.32;;;5.30;1.00;;;6.81;100.00;100212.44;5002283;28;130052;-76
2022/10/13 07:02:40;;;;;;;37.22;15.30;;;5.40;1.00;;;7.02;100.00;100212.44;5002653;28;129921;-76
2022/10/13 07:05:09;;;;;;;23.00;11.18;;;5.60;1.00;;;7.18;100.00;100219.47;5003092;28;119755;-76
2022/10/13 07:07:38;;;;;;;35.25;10.98;;;5.80;1.00;;;7.23;100.00;100220.53;5003903;28;119811;-76
2022/10/13 07:10:08;;;;;;;28.90;11.07;;;5.90;1.00;;;7.21;100.00;100218.09;5005098;28;130255;-77
2022/10/13 07:12:37;;;;;;;59.08;15.32;;;5.50;1.00;;;7.35;100.00;100210.25;5002616;28;129601;-76
2022/10/13 07:15:06;;;;;;;55.25;13.65;;;5.60;1.00;;;7.42;100.00;100216.19;5003220;28;119583;-75
2022/10/13 07:17:35;;;;;;;35.47;12.98;;;5.60;1.00;;;7.53;100.00;100212.38;5001722;28;120006;-76
2022/10/13 07:20:04;;;;;;;18.15;8.88;;;5.60;1.00;;;7.70;100.00;100219.38;5000546;28;130109;-76
2022/10/13 07:22:33;;;;;;;29.30;13.57;;;5.80;1.00;;;7.94;100.00;100221.47;5003009;28;128159;-76
2022/10/13 07:25:01;;;;;;;32.67;13.65;;;6.10;1.00;;;8.06;100.00;100220.06;5001612;28;120195;-78
2022/10/13 07:27:31;;;;;;;50.90;21.17;;;6.30;1.00;;;8.08;100.00;100222.47;5001703;28;119877;-78
2022/10/13 07:30:02;;;;;;;97.55;33.22;;;6.30;1.00;;;7.96;100.00;100230.09;5001093;28;129619;-76
2022/10/13 07:32:32;;;;;;;57.78;23.45;;;6.10;1.00;;;7.83;100.00;100231.50;5000919;28;129544;-76
2022/10/13 07:35:04;;;;;;;38.90;20.30;;;6.00;1.00;;;7.90;100.00;100227.41;5001147;28;119540;-76
2022/10/13 07:37:32;;;;;;;76.13;38.38;;;6.20;1.00;;;7.99;100.00;100234.94;5001477;28;119457;-78
2022/10/13 07:40:01;;;;;;;68.47;31.17;;;6.20;1.00;;;8.09;100.00;100234.91;5000924;28;129975;-77
2022/10/13 07:42:32;;;;;;;69.75;22.65;;;6.20;1.00;;;8.02;100.00;100229.00;5000975;28;129928;-76
2022/10/13 07:45:01;;;;;;;47.05;20.63;;;6.10;1.00;;;8.02;100.00;100223.59;4999902;28;122415;-77
2022/10/13 07:47:30;;;;;;;45.83;20.88;;;6.20;1.00;;;8.28;100.00;100226.97;5003106;28;121971;-77
2022/10/13 07:49:59;;;;;;;60.55;23.08;;;6.50;1.00;;;8.39;100.00;100222.34;5003756;28;132724;-77
2022/10/13 07:52:27;;;;;;;43.90;19.80;;;6.50;1.00;;;8.52;100.00;100229.84;5000791;28;130369;-76
2022/10/13 07:54:56;;;;;;;49.08;17.35;;;6.70;1.00;;;8.61;100.00;100227.38;5002976;28;118752;-77
2022/10/13 07:57:27;;;;;;;92.25;23.02;;;6.80;1.00;;;8.63;100.00;100228.72;5000902;28;119250;-77
2022/10/13 07:59:56;;;;;;;39.03;16.27;;;6.70;1.00;;;8.48;100.00;100236.91;5000821;28;130116;-77
2022/10/13 08:02:25;;;;;;;67.35;21.45;;;6.60;1.00;;;8.48;100.00;100242.31;5001305;28;129812;-77
2022/10/13 08:04:54;;;;;;;57.42;21.45;;;6.60;1.00;;;8.38;100.00;100239.63;5000957;28;119697;-77
2022/10/13 08:07:23;;;;;;;39.78;20.33;;;6.40;1.00;;;8.48;100.00;100242.31;5002486;28;118339;-77
2022/10/13 08:09:52;;;;;;;32.72;16.90;;;6.80;1.00;;;8.63;100.00;100238.72;4999425;28;130119;-78
2022/10/13 08:12:20;;;;;;;34.90;18.25;;;6.90;1.00;;;9.05;100.00;100241.94;5000296;28;129377;-77
2022/10/13 08:14:51;;;;;;;39.42;17.40;;;7.30;1.00;;;9.48;100.00;100236.69;5000884;28;119723;-76
2022/10/13 08:17:21;;;;;;;26.88;13.90;;;7.60;1.00;;;9.90;100.00;100235.16;5000475;28;119747;-77
2022/10/13 08:19:51;;;;;;;36.55;16.65;;;7.90;1.00;;;10.11;100.00;100237.63;4999920;28;130115;-76
2022/10/13 08:22:21;;;;;;;39.95;16.30;;;8.00;1.00;;;10.18;100.00;100233.47;5001976;28;129529;-76
2022/10/13 08:24:50;;;;;;;39.03;16.90;;;8.10;99.90;;;10.02;100.00;100223.91;5001908;28;119096;-76
2022/10/13 08:27:22;;;;;;;27.52;16.55;;;8.10;1.00;;;9.84;100.00;100222.75;5000740;28;119462;-76
2022/10/13 08:29:53;;;;;;;31.23;16.98;;;8.00;1.00;;;9.84;100.00;100239.03;4999208;28;129928;-77
2022/10/13 08:32:23;;;;;;;30.13;16.63;;;8.10;1.00;;;9.68;100.00;100231.06;5000404;28;129995;-77
2022/10/13 08:34:52;;;;;;;29.08;16.20;;;7.90;99.90;;;9.60;100.00;100231.69;4999218;28;122095;-77
2022/10/13 08:37:21;;;;;;;25.48;13.18;;;7.80;99.90;;;9.45;100.00;100232.66;5000219;28;122329;-77
2022/10/13 08:39:49;;;;;;;26.15;14.65;;;7.80;99.90;;;9.47;100.00;100235.06;5001752;28;129297;-77
2022/10/13 08:42:21;;;;;;;25.52;14.00;;;7.80;99.90;;;9.74;100.00;100228.28;4999892;28;129386;-77
2022/10/13 08:44:54;;;;;;;38.75;22.00;;;8.00;99.90;;;9.88;100.00;100226.53;5000274;28;119895;-76
2022/10/13 08:47:39;;;;;;;28.88;18.15;;;8.30;99.90;;;9.49;100.00;100232.88;5002182;28;119593;-77
2022/10/13 08:50:15;;;;;;;29.30;16.95;;;8.00;99.90;;;9.49;100.00;100232.88;5001239;28;129446;-77
2022/10/13 08:52:53;;;;;;;16.95;11.95;;;8.00;99.90;;;9.60;100.00;100231.69;5003127;28;102659;-76
2022/10/13 08:55:30;;;;;;;29.00;16.25;;;8.20;99.90;;;9.75;100.00;100229.91;4984984;28;118850;-76
2022/10/13 08:57:59;;;;;;;31.05;16.63;;;8.30;99.90;;;9.76;100.00;100223.41;5000009;28;119260;-77
2022/10/13 09:00:29;;;;;;;22.05;14.57;;;8.40;99.90;;;9.81;100.00;100218.72;4998894;28;129885;-77
2022/10/13 09:03:21;;;;;;;18.73;12.23;;;8.50;99.90;;;10.32;100.00;100224.63;4997494;28;129568;-77
2022/10/13 09:06:11;;;;;;;19.50;11.80;;;8.90;99.90;;;10.92;100.00;100215.91;5011856;28;120149;-77
2022/10/13 09:08:45;;;;;;;20.42;12.95;;;9.40;99.90;;;11.20;100.00;100214.06;4999934;28;119777;-77
2022/10/13 09:11:14;;;;;;;20.83;14.00;;;9.50;99.90;;;11.45;97.47;100214.72;5000834;28;129834;-76
2022/10/13 09:13:43;;;;;;;15.20;11.48;;;9.60;99.90;;;11.67;97.47;100211.31;4999203;28;130051;-77
2022/10/13 09:16:11;;;;;;;15.27;9.80;;;9.90;99.90;;;11.83;94.78;100217.28;4999238;28;119553;-75
2022/10/13 09:18:42;;;;;;;17.75;10.75;;;9.80;99.90;;;11.90;93.82;100214.16;4999705;28;119392;-77
2022/10/13 09:21:22;;;;;;;18.85;10.65;;;10.00;99.90;;;11.86;94.24;100203.88;4998823;28;129733;-77
2022/10/13 09:23:52;;;;;;;14.88;9.70;;;10.10;99.90;;;11.85;93.04;100210.41;4998882;28;129478;-74
2022/10/13 09:26:24;;;;;;;12.75;9.07;;;9.90;99.90;;;11.85;93.47;100204.97;4997682;28;121992;-77
2022/10/13 09:28:54;;;;;;;16.55;9.98;;;10.10;99.30;;;11.71;95.49;100200.66;4999398;28;122376;-77
2022/10/13 09:31:27;;;;;;;17.63;10.98;;;10.10;99.90;;;11.87;94.79;100204.69;4998275;28;130531;-77
2022/10/13 09:34:02;;;;;;;16.55;9.75;;;10.40;93.30;;;11.97;92.82;100214.59;4997230;28;129545;-76
2022/10/13 09:36:31;;;;;;;17.47;10.03;;;10.40;89.70;;;11.84;92.74;100205.28;5001069;28;119032;-74
2022/10/13 09:39:12;;;;;;;19.10;10.80;;;10.40;89.80;;;11.64;93.83;100201.03;4999158;28;119182;-76
2022/10/13 09:41:41;;;;;;;14.85;9.75;;;10.40;80.30;;;11.54;94.31;100207.50;5000624;28;130034;-74
2022/10/13 09:44:14;;;;;;;14.80;9.15;;;10.30;73.30;;;11.79;94.41;100202.69;5004893;28;129818;-75
2022/10/13 09:46:52;;;;;;;15.27;8.57;;;10.50;74.00;;;12.13;92.39;100201.47;5004161;28;120449;-75
2022/10/13 09:49:36;;;;;;;16.80;9.50;;;10.90;54.90;;;12.44;88.70;100201.63;5002749;28;120046;-74
2022/10/13 09:52:16;;;;;;;16.02;7.00;;;11.00;16.30;;;12.52;86.54;100208.25;5001007;28;130619;-74
2022/10/13 09:54:48;;;;;;;10.40;5.95;;;11.20;9.00;;;12.78;85.67;100205.75;5002071;28;129933;-76
2022/10/13 09:57:29;;;;;;;8.68;4.28;;;11.40;1.00;;;13.11;83.02;100197.31;5002796;28;120312;-75
2022/10/13 10:00:12;;;;;;;7.80;3.92;;;11.70;1.00;;;13.24;75.23;100206.50;5002573;28;119943;-75
2022/10/13 10:02:48;;;;;;;12.23;4.10;;;11.40;1.00;;;13.23;75.84;100200.28;5002122;28;130316;-74
2022/10/13 10:05:26;;;;;;;10.15;3.95;;;11.50;1.00;;;13.44;75.62;100194.31;5002006;28;129486;-75
2022/10/13 10:08:06;;;;;;;9.73;3.90;;;11.70;1.00;;;13.47;74.51;100188.22;5002448;28;119303;-75
2022/10/13 10:10:39;;;;;;;6.07;1.90;;;11.70;1.00;;;13.71;70.45;100198.72;5002738;28;119360;-75
2022/10/13 10:13:13;;;;;;;7.85;2.10;;;12.00;1.00;;;13.78;67.13;100193.63;5002116;28;131693;-74
2022/10/13 10:15:53;;;;;;;6.72;2.60;;;11.80;1.00;;;14.17;69.22;100188.44;5001790;28;130038;-74
2022/10/13 10:18:32;;;;;;;7.25;2.45;;;12.50;1.00;;;14.30;65.05;100190.22;5000889;28;122610;-74
2022/10/13 10:21:10;;;;;;;7.57;1.90;;;12.50;1.00;;;14.48;60.48;100193.78;5002067;28;121794;-75
2022/10/13 10:23:47;;;;;;;8.40;2.60;;;12.60;1.00;;;14.59;59.26;100180.59;5001933;28;130064;-76
2022/10/13 10:26:22;;;;;;;5.57;2.08;;;12.40;1.00;;;14.51;62.91;100175.94;5002018;28;129492;-76
2022/10/13 10:29:17;;;;;;;8.13;2.42;;;12.60;1.00;;;14.89;62.01;100180.75;5003788;28;119972;-76